Time;durP1;ratioP1;P1;durP2;ratioP2;P2;SDS_P1;SDS_P2;PMS_P1;PMS_P2;Temp;Humidity;BMP_temperature;BMP_pressure;BME280_temperature;BME280_humidity;BME280_pressure;Samples;Min_cycle;Max_cycle;Signal;HPM_P1;HPM_P2
2021/12/29 00:00:44;;;;;;;15.40;12.05;;;;;;;8.10;100.00;99157.75;5049243;28;20028;-59
2021/12/29 00:03:09;;;;;;;15.77;11.73;;;;;;;8.08;100.00;99143.91;5049337;28;20040;-59
2021/12/29 00:05:35;;;;;;;17.33;11.95;;;;;;;7.61;100.00;99070.91;5049005;28;20025;-59
2021/12/29 00:08:01;;;;;;;19.38;11.75;;;;;;;8.11;100.00;99163.81;5047135;28;20023;-60
2021/12/29 00:10:27;;;;;;;13.15;11.70;;;;;;;7.86;100.00;99133.03;5048900;28;20830;-59
2021/12/29 00:12:54;;;;;;;14.23;11.45;;;;;;;8.09;100.00;99182.22;5048965;28;20039;-59
2021/12/29 00:15:27;;;;;;;14.98;10.90;;;;;;;8.10;100.00;99175.22;5048117;28;20024;-59
2021/12/29 00:17:53;;;;;;;17.55;11.45;;;;;;;7.97;100.00;99153.34;5048634;28;20027;-59
2021/12/29 00:20:22;;;;;;;17.02;10.70;;;;;;;8.09;100.00;99171.75;5046861;28;20081;-59
2021/12/29 00:22:47;;;;;;;18.27;11.65;;;;;;;8.07;100.00;99181.47;5047125;28;20039;-58
2021/12/29 00:25:13;;;;;;;13.20;10.70;;;;;;;8.08;100.00;99190.13;5048829;28;20083;-59
2021/12/29 00:27:39;;;;;;;17.85;11.30;;;;;;;8.06;100.00;99203.31;5048478;28;20903;-59
2021/12/29 00:30:07;;;;;;;18.83;10.93;;;;;;;8.07;100.00;99207.63;5046587;28;20534;-59
2021/12/29 00:32:32;;;;;;;19.48;11.98;;;;;;;8.05;100.00;99217.31;5046459;28;20036;-59
2021/12/29 00:34:58;;;;;;;16.02;12.65;;;;;;;8.07;100.00;99235.56;5046734;28;20133;-59
2021/12/29 00:37:23;;;;;;;17.02;12.43;;;;;;;8.05;100.00;99235.63;5049469;28;20921;-59
2021/12/29 00:39:48;;;;;;;17.83;12.38;;;;;;;8.06;100.00;99229.47;5048269;28;20465;-59
2021/12/29 00:42:14;;;;;;;19.33;12.35;;;;;;;8.03;100.00;99232.28;5048473;28;20030;-59
2021/12/29 00:44:39;;;;;;;12.20;10.85;;;;;;;8.03;100.00;99229.66;5048527;28;20035;-59
2021/12/29 00:47:05;;;;;;;13.88;11.32;;;;;;;7.86;100.00;99214.13;5048138;28;20024;-59
2021/12/29 00:49:33;;;;;;;15.32;11.52;;;;;;;8.04;100.00;99240.97;5048713;28;20870;-59
2021/12/29 00:52:07;;;;;;;18.17;12.43;;;;;;;8.02;100.00;99241.06;5049347;28;20062;-59
2021/12/29 00:54:33;;;;;;;;;;;;;;;8.02;100.00;99251.50;5049049;28;20030;-59
2021/12/29 00:56:59;;;;;;;16.50;12.13;;;;;;;7.98;100.00;99252.63;5048172;28;20757;-59
2021/12/29 00:59:24;;;;;;;14.13;10.82;;;;;;;7.99;100.00;99267.38;5047170;28;20020;-59
2021/12/29 01:01:51;;;;;;;17.95;12.50;;;;;;;7.98;100.00;99283.16;5048239;28;20024;-59
2021/12/29 01:04:17;;;;;;;13.55;11.23;;;;;;;7.93;100.00;99280.81;5029751;28;20024;-59
2021/12/29 01:06:42;;;;;;;16.13;10.85;;;;;;;8.00;100.00;99297.00;5046676;28;20039;-59
2021/12/29 01:09:07;;;;;;;18.38;11.25;;;;;;;7.93;100.00;99286.06;5046799;28;20860;-59
2021/12/29 01:11:33;;;;;;;13.43;11.10;;;;;;;7.97;100.00;99298.03;5047554;28;20058;-59
2021/12/29 01:13:58;;;;;;;13.13;10.52;;;;;;;7.95;100.00;99289.41;5048250;28;20032;-59
2021/12/29 01:19:20;;;;;;;19.45;11.85;;;;;;;7.98;100.00;99299.69;5047715;28;20052;-59
2021/12/29 01:21:50;;;;;;;17.92;11.57;;;;;;;7.97;100.00;99298.03;5047726;28;20138;-59
2021/12/29 01:24:16;;;;;;;15.88;10.75;;;;;;;7.96;100.00;99311.19;5046224;28;20137;-59
2021/12/29 01:26:43;;;;;;;15.13;10.57;;;;;;;7.76;100.00;99288.78;5047610;28;20060;-60
2021/12/29 01:29:09;;;;;;;17.27;10.52;;;;;;;7.94;100.00;99307.81;5046072;28;20032;-59
2021/12/29 01:31:34;;;;;;;15.93;9.90;;;;;;;7.91;100.00;99326.31;5046761;28;20089;-59
2021/12/29 01:34:04;;;;;;;14.68;10.30;;;;;;;7.77;100.00;99306.16;5063216;28;20292;-59
2021/12/29 01:36:30;;;;;;;15.20;10.30;;;;;;;7.93;100.00;99346.22;5046421;28;20032;-59
2021/12/29 01:38:55;;;;;;;17.23;10.13;;;;;;;7.91;100.00;99344.63;5047814;28;20935;-59
2021/12/29 01:41:21;;;;;;;14.50;10.27;;;;;;;7.90;100.00;99346.38;5046418;28;20168;-59
2021/12/29 01:43:46;;;;;;;12.23;9.32;;;;;;;7.91;100.00;99358.50;5045555;28;20576;-59
2021/12/29 01:46:11;;;;;;;14.43;10.18;;;;;;;7.88;100.00;99358.69;5046597;28;20040;-59
2021/12/29 01:48:37;;;;;;;14.75;10.38;;;;;;;7.88;100.00;99366.53;5045811;28;20094;-59
2021/12/29 01:51:03;;;;;;;13.73;10.25;;;;;;;7.86;100.00;99367.56;5047335;28;20130;-59
2021/12/29 01:53:31;;;;;;;15.90;11.35;;;;;;;7.84;100.00;99383.31;5047341;28;20028;-59
2021/12/29 01:55:57;;;;;;;24.50;10.80;;;;;;;7.84;100.00;99380.69;5046946;28;20032;-59
2021/12/29 01:58:23;;;;;;;14.95;10.68;;;;;;;7.84;100.00;99396.38;5045257;28;20127;-59
2021/12/29 02:00:51;;;;;;;17.27;10.48;;;;;;;7.84;100.00;99398.19;5047009;28;20203;-59
2021/12/29 02:03:17;;;;;;;16.20;11.50;;;;;;;7.47;100.00;99342.66;5046720;28;20024;-59
2021/12/29 02:05:42;;;;;;;13.93;10.13;;;;;;;7.81;100.00;99399.19;5046824;28;20024;-59
2021/12/29 02:08:08;;;;;;;15.05;11.05;;;;;;;7.81;100.00;99406.22;5046743;28;20064;-59
2021/12/29 02:10:42;;;;;;;15.25;11.07;;;;;;;7.80;100.00;99402.75;5046600;28;20123;-59
2021/12/29 02:13:08;;;;;;;13.70;10.17;;;;;;;7.80;100.00;99399.28;5046469;28;20032;-59
2021/12/29 02:15:34;;;;;;;18.42;11.30;;;;;;;7.79;100.00;99398.44;5045971;28;20040;-58
2021/12/29 02:17:59;;;;;;;15.98;10.80;;;;;;;7.77;100.00;99399.44;5045246;28;20140;-58
2021/12/29 02:20:26;;;;;;;17.75;11.18;;;;;;;7.67;100.00;99389.47;5046540;28;20020;-58
2021/12/29 02:23:11;;;;;;;15.93;10.60;;;;;;;7.74;100.00;99395.22;5044675;28;20195;-59
2021/12/29 02:25:47;;;;;;;;;;;;;;;7.74;100.00;99402.22;5047669;28;20262;-58
2021/12/29 02:28:13;;;;;;;28.83;11.07;;;;;;;7.70;100.00;99405.00;5028881;28;20026;-58
2021/12/29 02:30:39;;;;;;;15.35;9.98;;;;;;;7.69;100.00;99418.16;5046614;28;20073;-58
2021/12/29 02:33:06;;;;;;;18.25;9.70;;;;;;;7.68;100.00;99408.63;5047031;28;20024;-58
2021/12/29 02:35:31;;;;;;;20.20;11.20;;;;;;;7.67;100.00;99404.34;5044817;28;20028;-59
2021/12/29 02:37:59;;;;;;;16.02;10.30;;;;;;;7.64;100.00;99404.47;5044495;28;20117;-59
2021/12/29 02:40:24;;;;;;;20.38;11.65;;;;;;;7.64;100.00;99404.47;5044379;28;20039;-59
2021/12/29 02:42:50;;;;;;;15.63;9.70;;;;;;;7.62;100.00;99408.97;5046043;28;20055;-58
2021/12/29 02:45:20;;;;;;;18.17;10.75;;;;;;;7.64;100.00;99412.31;5046159;28;20020;-58
2021/12/29 02:47:45;;;;;;;13.45;10.35;;;;;;;7.61;100.00;99415.09;5044592;28;20143;-58
2021/12/29 02:50:15;;;;;;;12.55;9.52;;;;;;;7.60;100.00;99419.47;5061904;28;20032;-59
2021/12/29 02:52:41;;;;;;;15.40;10.10;;;;;;;7.62;100.00;99432.50;5044989;28;20289;-59
2021/12/29 02:55:07;;;;;;;21.20;9.73;;;;;;;7.46;100.00;99415.94;5047447;28;20482;-59
2021/12/29 02:57:32;;;;;;;14.38;9.60;;;;;;;7.60;100.00;99444.81;5047336;28;20063;-58
2021/12/29 02:59:57;;;;;;;14.30;9.43;;;;;;;7.61;100.00;99449.09;5048202;28;20040;-58
2021/12/29 03:02:23;;;;;;;21.35;9.80;;;;;;;7.59;100.00;99443.13;5046708;28;20069;-58
2021/12/29 03:04:48;;;;;;;14.98;9.45;;;;;;;7.62;100.00;99453.41;5044766;28;20924;-59
2021/12/29 03:07:13;;;;;;;13.63;9.45;;;;;;;7.61;100.00;99454.31;5044611;28;20042;-58
2021/12/29 03:09:39;;;;;;;17.63;9.73;;;;;;;7.60;100.00;99461.31;5044777;28;20036;-58
2021/12/29 03:12:05;;;;;;;16.20;9.60;;;;;;;7.55;100.00;99452.03;5046060;28;20035;-58
2021/12/29 03:14:31;;;;;;;11.90;8.18;;;;;;;7.59;100.00;99458.78;5046011;28;20085;-58
2021/12/29 03:16:56;;;;;;;16.45;9.73;;;;;;;7.57;100.00;99456.25;5044432;28;20032;-58
2021/12/29 03:19:22;;;;;;;14.68;10.25;;;;;;;7.55;100.00;99457.25;5046055;28;20024;-58
2021/12/29 03:21:47;;;;;;;11.70;8.30;;;;;;;7.55;100.00;99454.66;5047107;28;20044;-58
2021/12/29 03:24:15;;;;;;;15.90;9.70;;;;;;;7.27;100.00;99425.66;5048424;28;20939;-58
2021/12/29 03:26:41;;;;;;;12.82;9.13;;;;;;;7.56;100.00;99466.81;5050218;28;20031;-58
2021/12/29 03:29:07;;;;;;;15.75;9.73;;;;;;;7.59;100.00;99474.47;5031934;28;20028;-58
2021/12/29 03:31:36;;;;;;;14.25;9.48;;;;;;;6.93;100.00;99372.56;5049758;28;20981;-58
2021/12/29 03:34:02;;;;;;;19.88;10.52;;;;;;;7.55;100.00;99483.41;5049590;28;20136;-58
2021/12/29 03:36:28;;;;;;;12.38;8.68;;;;;;;7.55;100.00;99484.25;5049191;28;20907;-58
2021/12/29 03:38:54;;;;;;;14.60;9.55;;;;;;;7.55;100.00;99484.25;5049415;28;20024;-58
2021/12/29 03:41:20;;;;;;;15.15;9.65;;;;;;;7.56;100.00;99479.88;5048708;28;20131;-58
2021/12/29 03:43:46;;;;;;;11.20;8.73;;;;;;;7.55;100.00;99488.63;5049475;28;20931;-58
2021/12/29 03:46:12;;;;;;;20.40;9.98;;;;;;;7.55;100.00;99486.00;5031127;28;20861;-58
2021/12/29 03:48:39;;;;;;;13.00;9.35;;;;;;;7.54;100.00;99498.22;5048939;28;20090;-58
2021/12/29 03:51:05;;;;;;;20.02;10.40;;;;;;;7.52;100.00;99492.25;5049424;28;20113;-58
2021/12/29 03:53:33;;;;;;;30.17;10.52;;;;;;;7.31;100.00;99474.22;5050317;28;20526;-58
2021/12/29 03:55:58;;;;;;;16.88;11.02;;;;;;;7.53;100.00;99500.94;5049474;28;20032;-58
2021/12/29 03:58:25;;;;;;;15.02;10.50;;;;;;;7.52;100.00;99499.25;5049741;28;20060;-58
2021/12/29 04:00:55;;;;;;;13.73;10.48;;;;;;;7.52;100.00;99499.25;5048843;28;20032;-58
2021/12/29 04:03:20;;;;;;;15.15;10.23;;;;;;;7.52;100.00;99501.88;5064972;28;20036;-58
2021/12/29 04:05:46;;;;;;;15.23;9.93;;;;;;;7.51;100.00;99511.47;5049008;28;20185;-58
2021/12/29 04:08:11;;;;;;;13.85;9.95;;;;;;;7.12;100.00;99449.06;5048914;28;20215;-58
2021/12/29 04:10:37;;;;;;;14.40;10.27;;;;;;;7.51;100.00;99513.22;5047642;28;20915;-59
2021/12/29 04:13:03;;;;;;;13.90;10.30;;;;;;;7.49;100.00;99531.63;5049330;28;20039;-59
2021/12/29 04:15:30;;;;;;;17.55;11.52;;;;;;;7.33;100.00;99506.34;5047501;28;20032;-59
2021/12/29 04:18:02;;;;;;;13.05;10.50;;;;;;;7.50;100.00;99522.03;5047633;28;20020;-59
2021/12/29 04:23:14;;;;;;;16.30;10.57;;;;;;;7.51;100.00;99523.69;5047516;28;20603;-59
2021/12/29 04:25:40;;;;;;;20.42;11.48;;;;;;;7.50;100.00;99527.25;5048718;28;20019;-59
2021/12/29 04:28:09;;;;;;;15.15;11.30;;;;;;;7.33;100.00;99514.19;5047935;28;20072;-59
2021/12/29 04:30:35;;;;;;;12.38;10.05;;;;;;;7.41;100.00;99512.88;5048239;28;20097;-58
2021/12/29 04:33:01;;;;;;;16.30;11.13;;;;;;;7.47;100.00;99537.88;5048769;28;20291;-59
2021/12/29 04:35:27;;;;;;;13.40;10.73;;;;;;;7.48;100.00;99542.16;5048599;28;20537;-59
2021/12/29 04:37:52;;;;;;;15.68;11.10;;;;;;;7.48;100.00;99553.44;5048570;28;20173;-58
2021/12/29 04:40:19;;;;;;;11.68;9.95;;;;;;;7.49;100.00;99552.53;5031303;28;20529;-59
2021/12/29 04:42:45;;;;;;;14.52;11.00;;;;;;;7.38;100.00;99538.31;5048588;28;20977;-59
2021/12/29 04:45:11;;;;;;;18.67;11.88;;;;;;;7.38;100.00;99543.53;5048020;28;20032;-59
2021/12/29 04:47:40;;;;;;;13.60;10.18;;;;;;;7.47;100.00;99558.78;5047468;28;20035;-59
2021/12/29 04:50:17;;;;;;;14.50;10.85;;;;;;;7.27;100.00;99532.78;5048145;28;20020;-59
2021/12/29 04:52:42;;;;;;;19.58;10.63;;;;;;;7.48;100.00;99556.06;5047712;28;20032;-59
2021/12/29 04:55:08;;;;;;;27.25;10.25;;;;;;;7.48;100.00;99560.44;5046517;28;20928;-59
2021/12/29 04:57:34;;;;;;;16.02;11.55;;;;;;;7.49;100.00;99567.38;5048508;28;20032;-59
2021/12/29 05:00:00;;;;;;;14.63;11.18;;;;;;;7.50;100.00;99563.84;5047902;28;20062;-59
2021/12/29 05:02:25;;;;;;;13.38;10.20;;;;;;;7.47;100.00;99569.22;5048053;28;20059;-58
2021/12/29 05:04:59;;;;;;;16.27;9.90;;;;;;;7.48;100.00;99576.13;5048070;28;20039;-58
2021/12/29 05:10:08;;;;;;;12.20;9.55;;;;;;;7.51;100.00;99570.72;5046415;28;20144;-59
2021/12/29 05:12:34;;;;;;;23.42;10.95;;;;;;;7.51;100.00;99570.72;5047906;28;20028;-59
2021/12/29 05:14:59;;;;;;;13.52;8.60;;;;;;;7.50;100.00;99567.28;5048051;28;20039;-59
2021/12/29 05:17:24;;;;;;;23.13;9.85;;;;;;;7.49;100.00;99572.59;5048025;28;20897;-59
2021/12/29 05:19:50;;;;;;;15.60;9.50;;;;;;;7.32;100.00;99549.09;5046495;28;20961;-58
2021/12/29 05:22:15;;;;;;;14.32;9.10;;;;;;;7.51;100.00;99578.56;5047385;28;20139;-59
2021/12/29 05:24:41;;;;;;;10.15;8.30;;;;;;;7.51;100.00;99576.81;5047592;28;20085;-58
2021/12/29 05:27:06;;;;;;;13.05;9.20;;;;;;;7.52;100.00;99572.44;5047596;28;20206;-58
2021/12/29 05:29:32;;;;;;;11.77;8.90;;;;;;;7.29;100.00;99539.63;5047384;28;20909;-58
2021/12/29 05:31:57;;;;;;;15.82;8.70;;;;;;;7.54;100.00;99583.66;5045797;28;20039;-58
2021/12/29 05:34:22;;;;;;;15.38;8.38;;;;;;;7.55;100.00;99587.97;5045778;28;20031;-58
2021/12/29 05:36:48;;;;;;;13.85;8.23;;;;;;;7.53;100.00;99590.66;5047512;28;20086;-58
2021/12/29 05:39:13;;;;;;;11.02;8.32;;;;;;;7.54;100.00;99596.72;5047409;28;20135;-59
2021/12/29 05:41:39;;;;;;;12.50;8.00;;;;;;;7.53;100.00;99600.28;5047552;28;20920;-59
2021/12/29 05:44:05;;;;;;;13.70;8.95;;;;;;;7.52;100.00;99603.81;5047122;28;21075;-59
2021/12/29 05:46:30;;;;;;;18.25;8.10;;;;;;;7.53;100.00;99605.50;5047311;28;20039;-59
2021/12/29 05:48:56;;;;;;;13.60;7.35;;;;;;;7.57;100.00;99607.03;5047304;28;20130;-59
2021/12/29 05:51:21;;;;;;;9.52;7.07;;;;;;;7.48;100.00;99587.44;5046120;28;20899;-59
2021/12/29 05:53:47;;;;;;;10.95;7.03;;;;;;;7.56;100.00;99610.56;5047400;28;20872;-58
2021/12/29 05:56:12;;;;;;;13.50;8.18;;;;;;;7.55;100.00;99614.94;5045519;28;20040;-59
2021/12/29 05:58:38;;;;;;;11.73;8.05;;;;;;;7.56;100.00;99618.41;5047912;28;20060;-58
2021/12/29 06:01:04;;;;;;;9.88;7.65;;;;;;;7.54;100.00;99607.16;5045310;28;20024;-59
2021/12/29 06:03:30;;;;;;;9.75;6.15;;;;;;;7.53;100.00;99613.34;5046562;28;20028;-58
2021/12/29 06:05:55;;;;;;;10.43;7.00;;;;;;;7.52;100.00;99616.88;5046849;28;20238;-58
2021/12/29 06:08:21;;;;;;;8.90;6.47;;;;;;;7.52;100.00;99622.09;5046847;28;20048;-58
2021/12/29 06:10:46;;;;;;;11.65;7.20;;;;;;;7.52;100.00;99620.34;5046905;28;20846;-58
2021/12/29 06:13:12;;;;;;;11.68;6.55;;;;;;;7.52;100.00;99620.34;5046926;28;20146;-59
2021/12/29 06:15:37;;;;;;;11.68;7.28;;;;;;;7.51;100.00;99621.25;5029028;28;20070;-58
2021/12/29 06:18:03;;;;;;;13.27;7.93;;;;;;;7.32;100.00;99590.88;5047243;28;20028;-58
2021/12/29 06:20:29;;;;;;;11.30;7.00;;;;;;;7.52;100.00;99624.72;5046827;28;20032;-59
2021/12/29 06:22:54;;;;;;;9.82;6.20;;;;;;;7.51;100.00;99623.00;5028239;28;20083;-59
2021/12/29 06:25:20;;;;;;;12.98;8.43;;;;;;;7.51;100.00;99629.09;5026956;28;20038;-58
2021/12/29 06:27:45;;;;;;;10.50;6.13;;;;;;;7.48;100.00;99623.16;5045291;28;20032;-59
2021/12/29 06:30:13;;;;;;;9.40;6.50;;;;;;;7.37;100.00;99609.81;5046855;28;20136;-59
2021/12/29 06:32:39;;;;;;;11.90;7.95;;;;;;;7.48;100.00;99629.25;5046700;28;20028;-59
2021/12/29 06:35:06;;;;;;;8.00;5.82;;;;;;;7.42;100.00;99623.47;5046802;28;20085;-59
2021/12/29 06:37:32;;;;;;;10.57;7.40;;;;;;;7.47;100.00;99632.78;5046974;28;20024;-58
2021/12/29 06:39:58;;;;;;;11.45;6.82;;;;;;;7.47;100.00;99638.00;5046568;28;20071;-58
2021/12/29 06:42:23;;;;;;;8.50;5.78;;;;;;;7.47;100.00;99639.78;5026856;28;20028;-58
2021/12/29 06:44:49;;;;;;;7.65;4.97;;;;;;;7.48;100.00;99639.69;5044798;28;20036;-58
2021/12/29 06:47:15;;;;;;;8.27;5.40;;;;;;;7.46;100.00;99646.78;5046831;28;20127;-58
2021/12/29 06:49:40;;;;;;;9.73;6.07;;;;;;;7.46;100.00;99652.00;5045310;28;20848;-58
2021/12/29 06:52:06;;;;;;;9.20;5.85;;;;;;;7.46;100.00;99648.53;5044674;28;20132;-58
2021/12/29 06:54:32;;;;;;;16.13;5.35;;;;;;;7.47;100.00;99658.09;5046596;28;20898;-58
2021/12/29 06:56:58;;;;;;;10.25;6.13;;;;;;;7.46;100.00;99659.84;5044121;28;20055;-58
2021/12/29 06:59:23;;;;;;;10.52;5.82;;;;;;;7.47;100.00;99665.94;5047095;28;20925;-58
2021/12/29 07:01:49;;;;;;;10.68;4.93;;;;;;;7.45;100.00;99665.13;5045378;28;20941;-58
2021/12/29 07:04:14;;;;;;;6.68;5.05;;;;;;;7.44;100.00;99668.66;5047038;28;20132;-59
2021/12/29 07:06:40;;;;;;;18.73;5.40;;;;;;;7.44;100.00;99663.44;5045983;28;20802;-58
2021/12/29 07:09:05;;;;;;;7.95;4.93;;;;;;;7.45;100.00;99675.59;5046710;28;20853;-58
2021/12/29 07:11:31;;;;;;;6.53;4.75;;;;;;;7.44;100.00;99663.44;5046138;28;20833;-58
2021/12/29 07:13:59;;;;;;;7.68;5.40;;;;;;;7.43;100.00;99667.84;5046873;28;20093;-58
2021/12/29 07:16:25;;;;;;;9.23;5.13;;;;;;;7.39;100.00;99670.66;5045395;28;20032;-58
2021/12/29 07:18:50;;;;;;;9.85;6.25;;;;;;;7.40;100.00;99672.38;5046401;28;20032;-59
2021/12/29 07:21:16;;;;;;;8.15;5.50;;;;;;;7.42;100.00;99686.19;5027783;28;20906;-58
2021/12/29 07:23:41;;;;;;;10.98;5.55;;;;;;;7.42;100.00;99684.44;5045582;28;20911;-58
2021/12/29 07:26:07;;;;;;;11.38;5.70;;;;;;;7.43;100.00;99682.69;5043870;28;20036;-58
2021/12/29 07:28:32;;;;;;;14.57;5.97;;;;;;;7.40;100.00;99678.41;5045947;28;20032;-58
2021/12/29 07:30:58;;;;;;;10.38;6.10;;;;;;;7.40;100.00;99688.88;5046446;28;20871;-58
2021/12/29 07:33:23;;;;;;;10.90;5.95;;;;;;;7.42;100.00;99686.19;5030694;28;20132;-58
2021/12/29 07:35:49;;;;;;;8.35;5.75;;;;;;;7.41;100.00;99684.50;5046703;28;20028;-58
2021/12/29 07:38:15;;;;;;;7.40;5.38;;;;;;;7.43;100.00;99682.69;5046798;28;20024;-58
2021/12/29 07:40:40;;;;;;;8.57;5.07;;;;;;;7.42;100.00;99686.19;5046407;28;20028;-57
2021/12/29 07:43:05;;;;;;;7.63;5.05;;;;;;;7.43;100.00;99693.13;5045664;28;20093;-58
2021/12/29 07:45:31;;;;;;;7.50;4.85;;;;;;;7.44;100.00;99697.41;5046148;28;20135;-58
2021/12/29 07:47:57;;;;;;;8.05;5.45;;;;;;;7.42;100.00;99699.28;5044341;28;20026;-58
2021/12/29 07:50:22;;;;;;;9.73;5.65;;;;;;;7.43;100.00;99703.59;5043864;28;20024;-59
2021/12/29 07:52:48;;;;;;;8.48;6.07;;;;;;;7.34;100.00;99693.56;5045218;28;20043;-58
2021/12/29 07:55:20;;;;;;;10.27;6.68;;;;;;;7.30;100.00;99697.25;5045272;28;20862;-58
2021/12/29 07:57:47;;;;;;;13.18;5.88;;;;;;;7.49;100.00;99714.59;5045387;28;20034;-58
2021/12/29 08:00:13;;;;;;;9.85;5.50;;;;;;;7.50;100.00;99720.66;5045260;28;20024;-58
2021/12/29 08:02:40;;;;;;;10.55;6.10;;;;;;;7.50;100.00;99728.50;5043712;28;20028;-58
2021/12/29 08:05:07;;;;;;;7.88;5.47;;;;;;;7.50;100.00;99728.50;5059274;28;20036;-58
2021/12/29 08:07:32;;;;;;;9.30;5.50;;;;;;;7.48;100.00;99712.03;5046278;28;20032;-58
2021/12/29 08:09:58;;;;;;;7.32;5.07;;;;;;;7.49;100.00;99711.13;5050039;28;20067;-58
2021/12/29 08:12:23;;;;;;;8.25;5.55;;;;;;;7.48;100.00;99710.28;5050813;28;20080;-58
2021/12/29 08:14:51;;;;;;;10.55;5.70;;;;;;;7.27;100.00;99682.56;5032526;28;20028;-58
2021/12/29 08:17:16;;;;;;;11.70;6.30;;;;;;;7.32;100.00;99684.97;5049852;28;20020;-58
2021/12/29 08:19:42;;;;;;;8.95;5.18;;;;;;;7.45;100.00;99696.50;5050737;28;20029;-58
2021/12/29 08:22:09;;;;;;;10.18;5.03;;;;;;;7.62;100.00;99714.81;5048486;28;20032;-58
2021/12/29 08:24:34;;;;;;;13.30;6.85;;;;;;;7.58;100.00;99708.06;5048392;28;20439;-58
2021/12/29 08:26:59;;;;;;;10.23;5.25;;;;;;;7.64;100.00;99720.81;5051167;28;20044;-58
2021/12/29 08:29:25;;;;;;;10.23;5.47;;;;;;;7.65;100.00;99717.28;5049854;28;20024;-58
2021/12/29 08:31:51;;;;;;;10.90;5.50;;;;;;;7.70;100.00;99729.19;5050033;28;20032;-58
2021/12/29 08:34:16;;;;;;;8.43;4.35;;;;;;;7.71;100.00;99730.91;5050027;28;20805;-58
2021/12/29 08:36:42;;;;;;;11.75;4.68;;;;;;;7.77;100.00;99740.22;5050109;28;20047;-58
2021/12/29 08:39:07;;;;;;;9.23;4.30;;;;;;;7.77;100.00;99742.84;5050752;28;20856;-58
2021/12/29 08:41:33;;;;;;;10.45;4.53;;;;;;;7.75;100.00;99739.44;5051298;28;20097;-58
2021/12/29 08:43:58;;;;;;;8.27;4.18;;;;;;;7.75;100.00;99736.81;5049620;28;20885;-58
2021/12/29 08:46:24;;;;;;;13.68;4.10;;;;;;;7.47;100.00;99698.13;5049680;28;20024;-58
2021/12/29 08:48:49;;;;;;;11.70;5.38;;;;;;;7.73;100.00;99733.47;5049612;28;20027;-58
2021/12/29 08:51:17;;;;;;;8.65;4.10;;;;;;;7.69;100.00;99726.69;5050124;28;20078;-58
2021/12/29 08:53:42;;;;;;;9.02;4.55;;;;;;;7.40;100.00;99688.06;5032445;28;20028;-59
2021/12/29 08:56:08;;;;;;;15.90;5.20;;;;;;;7.66;100.00;99724.22;5048448;28;20151;-58
2021/12/29 08:58:33;;;;;;;10.90;4.35;;;;;;;7.65;100.00;99714.66;5050032;28;20047;-58
2021/12/29 09:01:00;;;;;;;12.10;4.70;;;;;;;7.34;100.00;99668.28;5048756;28;20057;-58
2021/12/29 09:03:26;;;;;;;12.30;4.57;;;;;;;7.60;100.00;99717.50;5048234;28;20095;-58
2021/12/29 09:05:51;;;;;;;9.65;4.88;;;;;;;7.59;100.00;99720.22;5047532;28;20040;-58
2021/12/29 09:08:17;;;;;;;11.10;4.78;;;;;;;7.61;100.00;99726.19;5047666;28;20083;-58
2021/12/29 09:10:44;;;;;;;11.15;5.35;;;;;;;7.61;100.00;99727.03;5048404;28;20839;-58
2021/12/29 09:13:10;;;;;;;8.75;4.60;;;;;;;7.42;100.00;99686.19;5046216;28;20092;-58
2021/12/29 09:15:36;;;;;;;9.27;4.53;;;;;;;7.67;100.00;99720.69;5047781;28;20055;-58
2021/12/29 09:18:01;;;;;;;13.60;4.93;;;;;;;7.68;100.00;99719.75;5047847;28;20890;-58
2021/12/29 09:20:30;;;;;;;9.18;4.75;;;;;;;7.69;100.00;99717.06;5048347;28;20838;-58
2021/12/29 09:23:02;;;;;;;16.65;5.50;;;;;;;7.74;100.00;99713.38;5048194;28;20027;-58
2021/12/29 09:25:28;;;;;;;13.73;5.38;;;;;;;7.78;100.00;99715.75;5048523;28;20040;-58
2021/12/29 09:27:54;;;;;;;9.32;4.70;;;;;;;7.81;100.00;99707.75;5047703;28;20020;-58
2021/12/29 09:30:22;;;;;;;12.85;5.32;;;;;;;7.85;100.00;99717.16;5046652;28;20040;-58
2021/12/29 09:32:47;;;;;;;8.45;4.85;;;;;;;7.90;100.00;99720.38;5047076;28;20542;-58
2021/12/29 09:35:13;;;;;;;8.43;4.22;;;;;;;7.85;100.00;99701.44;5048241;28;20028;-58
2021/12/29 09:37:40;;;;;;;10.45;4.80;;;;;;;7.92;100.00;99722.91;5048454;28;20051;-58
2021/12/29 09:40:06;;;;;;;8.70;4.72;;;;;;;7.89;100.00;99708.22;5048585;28;20035;-58
2021/12/29 09:42:32;;;;;;;8.82;5.10;;;;;;;7.91;100.00;99721.25;5048892;28;20146;-58
2021/12/29 09:44:57;;;;;;;9.10;4.57;;;;;;;7.91;100.00;99727.28;5048531;28;20067;-58
2021/12/29 09:47:23;;;;;;;7.28;4.70;;;;;;;7.91;100.00;99722.06;5063670;28;20216;-58
2021/12/29 09:49:48;;;;;;;9.23;4.13;;;;;;;7.91;100.00;99706.38;5048755;28;20811;-58
2021/12/29 09:52:14;;;;;;;11.45;4.43;;;;;;;7.93;100.00;99703.69;5048469;28;20070;-58
2021/12/29 09:54:39;;;;;;;8.55;4.10;;;;;;;7.92;100.00;99712.44;5048179;28;20062;-58
2021/12/29 09:57:04;;;;;;;7.97;4.45;;;;;;;7.89;100.00;99708.22;5046828;28;20032;-58
2021/12/29 09:59:30;;;;;;;9.40;4.18;;;;;;;7.84;100.00;99710.22;5047133;28;20256;-58
2021/12/29 10:01:57;;;;;;;8.05;3.70;;;;;;;7.67;100.00;99691.94;5045404;28;20788;-58
2021/12/29 10:04:23;;;;;;;7.53;4.50;;;;;;;7.69;100.00;99690.06;5046850;28;20930;-58
2021/12/29 10:06:48;;;;;;;9.02;3.92;;;;;;;7.61;100.00;99672.16;5046674;28;20032;-58
2021/12/29 10:09:16;;;;;;;10.35;4.63;;;;;;;7.84;100.00;99704.16;5029903;28;20041;-58
2021/12/29 10:11:42;;;;;;;7.38;3.75;;;;;;;7.88;100.00;99701.28;5047607;28;20024;-58
2021/12/29 10:14:11;;;;;;;7.13;3.60;;;;;;;7.93;100.00;99701.06;5047537;28;20081;-58
2021/12/29 10:16:38;;;;;;;8.45;3.97;;;;;;;7.97;100.00;99695.63;5046930;28;20036;-58
2021/12/29 10:19:04;;;;;;;10.93;4.25;;;;;;;8.05;100.00;99677.75;5047201;28;20076;-58
2021/12/29 10:21:30;;;;;;;10.93;4.05;;;;;;;8.02;100.00;99670.06;5046144;28;20028;-58
2021/12/29 10:23:57;;;;;;;10.57;3.78;;;;;;;8.32;100.00;99687.72;5044626;28;20036;-57
2021/12/29 10:26:29;;;;;;;10.65;4.18;;;;;;;8.54;100.00;99680.44;5044426;28;20046;-57
2021/12/29 10:29:01;;;;;;;8.20;3.47;;;;;;;8.76;100.00;99669.66;5025318;28;20028;-58
2021/12/29 10:31:30;;;;;;;6.60;3.13;;;;;;;8.83;100.00;99661.38;5044821;28;20070;-58
2021/12/29 10:33:57;;;;;;;6.43;3.13;;;;;;;8.82;100.00;99670.16;5044588;28;20039;-58
2021/12/29 10:36:29;;;;;;;5.35;3.22;;;;;;;8.80;100.00;99672.03;5044586;28;20034;-58
2021/12/29 10:39:01;;;;;;;4.80;2.70;;;;;;;8.77;100.00;99682.69;5044537;28;20881;-58
2021/12/29 10:41:27;;;;;;;12.07;3.20;;;;;;;8.77;100.00;99680.06;5043797;28;20139;-58
2021/12/29 10:43:57;;;;;;;5.43;2.47;;;;;;;8.81;100.00;99678.13;5046964;28;20036;-57
2021/12/29 10:46:24;;;;;;;10.10;3.60;;;;;;;8.81;100.00;99678.13;5048799;28;20028;-57
2021/12/29 10:48:51;;;;;;;10.38;3.15;;;;;;;8.81;100.00;99676.34;5047136;28;20032;-58
2021/12/29 10:51:17;;;;;;;6.03;2.30;;;;;;;8.81;100.00;99672.88;5045977;28;20036;-59
2021/12/29 10:53:42;;;;;;;7.57;3.13;;;;;;;8.84;100.00;99670.94;5047006;28;20052;-59
2021/12/29 10:56:22;;;;;;;7.72;2.72;;;;;;;8.84;100.00;99673.56;5046134;28;20036;-58
2021/12/29 10:58:48;;;;;;;6.43;2.65;;;;;;;8.84;100.00;99668.31;5044774;28;20143;-58
2021/12/29 11:01:15;;;;;;;7.57;2.58;;;;;;;8.84;100.00;99680.56;5045921;28;20035;-58
2021/12/29 11:03:53;;;;;;;6.90;2.88;;;;;;;8.84;100.00;99678.78;5060218;28;20024;-57
2021/12/29 11:06:21;;;;;;;5.47;2.60;;;;;;;8.84;100.00;99678.78;5046196;28;20028;-59
2021/12/29 11:08:52;;;;;;;11.27;3.13;;;;;;;8.81;100.00;99686.81;5046107;28;20031;-59
2021/12/29 11:11:20;;;;;;;8.50;3.97;;;;;;;8.77;100.00;99682.69;5026831;28;20927;-59
2021/12/29 11:13:46;;;;;;;10.38;3.00;;;;;;;8.63;100.00;99659.84;5046657;28;20032;-59
2021/12/29 11:16:11;;;;;;;14.95;3.70;;;;;;;8.71;100.00;99662.06;5045273;28;20113;-59
2021/12/29 11:18:48;;;;;;;18.58;4.03;;;;;;;8.67;100.00;99660.53;5047081;28;20808;-59
2021/12/29 11:21:25;;;;;;;11.07;4.13;;;;;;;8.65;100.00;99657.16;5046236;28;20028;-59
2021/12/29 11:23:51;;;;;;;5.25;2.95;;;;;;;8.66;100.00;99674.53;5061970;28;20098;-59
2021/12/29 11:26:27;;;;;;;8.05;4.30;;;;;;;8.67;100.00;99687.56;5045356;28;20024;-59
2021/12/29 11:28:52;;;;;;;9.05;3.83;;;;;;;8.53;100.00;99668.28;5046686;28;20034;-59